Terminal Aerodrome Forecast
Issued by NWS

Home | Current Version | Previous Version | Text Only | Print | Product List | Glossary On
Versions: 1 2 3 4 5 6 7 8 9 10 11 12 13 14
000
FTUS45 KLKN 161400 AAA
TAFELY
TAF AMD
KELY 161416Z 1614/1712 01012G22KT P6SM OVC090
     FM162000 35010G20KT P6SM OVC080
     FM170200 35007KT P6SM SCT080 BKN200=

USA.gov is the U.S. government's official web portal to all federal, state and local government web resources and services.